createdAt,value
2018-04-09T00:00:07.000Z,29.6
2018-04-09T00:01:23.000Z,29.6
2018-04-09T00:02:23.000Z,29.6
2018-04-09T00:04:23.000Z,29.7
2018-04-09T00:05:23.000Z,29.7
2018-04-09T00:07:23.000Z,29.8
2018-04-09T00:09:23.000Z,29.8
2018-04-09T00:11:23.000Z,29.8
2018-04-09T00:13:23.000Z,29.8
2018-04-09T00:14:23.000Z,29.8
2018-04-09T00:15:22.000Z,29.8
2018-04-09T00:17:22.000Z,29.9
2018-04-09T00:18:22.000Z,29.9
2018-04-09T00:19:22.000Z,30
2018-04-09T00:21:22.000Z,30
2018-04-09T00:23:22.000Z,30
2018-04-09T00:25:22.000Z,29.9
2018-04-09T00:27:22.000Z,29.9
2018-04-09T00:28:22.000Z,29.8
2018-04-09T00:30:22.000Z,29.8
2018-04-09T00:31:22.000Z,29.9
2018-04-09T00:33:22.000Z,29.8
2018-04-09T00:34:22.000Z,29.8
2018-04-09T00:36:22.000Z,29.9
2018-04-09T00:37:22.000Z,29.9
2018-04-09T00:38:22.000Z,30
2018-04-09T00:40:22.000Z,30
2018-04-09T00:42:22.000Z,30
2018-04-09T00:43:22.000Z,30
2018-04-09T00:45:22.000Z,30
2018-04-09T00:46:22.000Z,30
2018-04-09T00:48:22.000Z,29.9
2018-04-09T00:50:22.000Z,29.9
2018-04-09T00:51:22.000Z,29.9
2018-04-09T00:52:22.000Z,29.9
2018-04-09T00:53:22.000Z,30
2018-04-09T00:54:22.000Z,30
2018-04-09T00:55:22.000Z,30.1
2018-04-09T00:57:22.000Z,30
2018-04-09T00:58:22.000Z,30
2018-04-09T00:59:22.000Z,30.1
2018-04-09T01:01:22.000Z,30.1
2018-04-09T01:02:22.000Z,30.1
2018-04-09T01:04:22.000Z,30.1
2018-04-09T01:05:22.000Z,30
2018-04-09T01:07:22.000Z,30
2018-04-09T01:08:22.000Z,30
2018-04-09T01:10:22.000Z,29.9
2018-04-09T01:11:22.000Z,29.9
2018-04-09T01:13:22.000Z,29.9
2018-04-09T01:14:22.000Z,29.9
2018-04-09T01:15:22.000Z,30
2018-04-09T01:16:22.000Z,30
2018-04-09T01:18:22.000Z,30.1
2018-04-09T01:20:23.000Z,30
2018-04-09T01:22:23.000Z,30
2018-04-09T01:23:23.000Z,30
2018-04-09T01:24:23.000Z,30
2018-04-09T01:26:23.000Z,30
2018-04-09T01:27:23.000Z,30
2018-04-09T01:28:23.000Z,30
2018-04-09T01:30:23.000Z,30.1
2018-04-09T01:31:23.000Z,30
2018-04-09T01:32:23.000Z,30
2018-04-09T01:34:07.000Z,30
2018-04-09T01:35:23.000Z,30
2018-04-09T01:36:23.000Z,30
2018-04-09T01:38:23.000Z,30
2018-04-09T01:39:23.000Z,29.9
2018-04-09T01:41:23.000Z,29.9
2018-04-09T01:43:23.000Z,29.9
2018-04-09T01:44:23.000Z,29.9
2018-04-09T01:46:23.000Z,29.8
2018-04-09T01:48:23.000Z,29.8
2018-04-09T01:50:23.000Z,29.7
2018-04-09T01:51:23.000Z,29.7
2018-04-09T01:53:23.000Z,29.7
2018-04-09T01:55:07.000Z,29.8
2018-04-09T01:56:23.000Z,29.7
2018-04-09T01:57:23.000Z,29.8
2018-04-09T01:58:23.000Z,29.8
2018-04-09T02:00:23.000Z,29.8
2018-04-09T02:01:23.000Z,29.8
2018-04-09T02:03:23.000Z,29.8
2018-04-09T02:04:23.000Z,29.9
2018-04-09T02:06:23.000Z,29.9
2018-04-09T02:07:23.000Z,29.9
2018-04-09T02:08:23.000Z,29.9
2018-04-09T02:10:07.000Z,29.9
2018-04-09T02:11:23.000Z,29.9
2018-04-09T02:12:23.000Z,29.9
2018-04-09T02:14:23.000Z,29.9
2018-04-09T02:16:23.000Z,29.9
2018-04-09T02:17:23.000Z,29.9
2018-04-09T02:19:23.000Z,29.9
2018-04-09T02:21:23.000Z,29.9
2018-04-09T02:23:07.000Z,29.8
2018-04-09T02:24:22.000Z,29.8
2018-04-09T02:25:22.000Z,29.8
2018-04-09T02:27:22.000Z,29.8
2018-04-09T02:29:22.000Z,29.8
2018-04-09T02:30:22.000Z,29.7
2018-04-09T02:32:22.000Z,29.7
2018-04-09T02:34:22.000Z,29.7
2018-04-09T02:35:22.000Z,29.6
2018-04-09T02:36:22.000Z,29.7
2018-04-09T02:38:22.000Z,29.7
2018-04-09T02:40:07.000Z,29.7
2018-04-09T02:41:22.000Z,29.7
2018-04-09T02:42:22.000Z,29.7
2018-04-09T02:43:22.000Z,29.7
2018-04-09T02:45:22.000Z,29.8
2018-04-09T02:46:22.000Z,29.8
2018-04-09T02:47:22.000Z,29.8
2018-04-09T02:49:22.000Z,29.8
2018-04-09T02:50:22.000Z,29.8
2018-04-09T02:51:22.000Z,29.8
2018-04-09T02:52:22.000Z,29.9
2018-04-09T02:54:22.000Z,29.8
2018-04-09T02:55:22.000Z,29.8
2018-04-09T02:57:22.000Z,29.8
2018-04-09T02:59:07.000Z,29.8
2018-04-09T03:00:22.000Z,29.8
2018-04-09T03:01:22.000Z,29.8
2018-04-09T03:03:22.000Z,29.8
2018-04-09T03:04:22.000Z,29.8
2018-04-09T03:05:22.000Z,29.9
2018-04-09T03:07:07.000Z,29.9
2018-04-09T03:08:22.000Z,29.8
2018-04-09T03:09:22.000Z,29.8
2018-04-09T03:11:07.000Z,29.8
2018-04-09T03:12:22.000Z,29.8
2018-04-09T03:14:22.000Z,29.8
2018-04-09T03:16:22.000Z,29.7
2018-04-09T03:18:22.000Z,29.6
2018-04-09T03:19:22.000Z,29.6
2018-04-09T03:20:22.000Z,29.7
2018-04-09T03:22:22.000Z,29.8
2018-04-09T03:23:22.000Z,29.8
2018-04-09T03:25:22.000Z,29.8
2018-04-09T03:27:23.000Z,29.8
2018-04-09T03:28:23.000Z,29.8
2018-04-09T03:29:23.000Z,29.8
2018-04-09T03:31:23.000Z,29.8
2018-04-09T03:33:23.000Z,29.7
2018-04-09T03:35:23.000Z,29.7
2018-04-09T03:36:23.000Z,29.7
2018-04-09T03:38:23.000Z,29.7
2018-04-09T03:39:23.000Z,29.6
2018-04-09T03:41:23.000Z,29.6
2018-04-09T03:43:23.000Z,29.6
2018-04-09T03:44:23.000Z,29.6
2018-04-09T03:45:23.000Z,29.6
2018-04-09T03:46:23.000Z,29.6
2018-04-09T03:48:23.000Z,29.7
2018-04-09T03:50:23.000Z,29.7
2018-04-09T03:52:23.000Z,29.7
2018-04-09T03:53:23.000Z,29.7
2018-04-09T03:55:23.000Z,29.6
2018-04-09T03:57:23.000Z,29.6
2018-04-09T03:59:23.000Z,29.6
2018-04-09T04:01:23.000Z,29.5
2018-04-09T04:02:23.000Z,29.5
2018-04-09T04:04:23.000Z,29.5
2018-04-09T04:05:23.000Z,29.5
2018-04-09T04:06:23.000Z,29.6
2018-04-09T04:07:23.000Z,29.6
2018-04-09T04:09:23.000Z,29.7
2018-04-09T04:10:23.000Z,29.7
2018-04-09T04:12:23.000Z,29.7
2018-04-09T04:14:23.000Z,29.6
2018-04-09T04:15:23.000Z,29.6
2018-04-09T04:17:23.000Z,29.6
2018-04-09T04:19:23.000Z,29.6
2018-04-09T04:21:23.000Z,29.6
2018-04-09T04:22:23.000Z,29.6
2018-04-09T04:23:23.000Z,29.7
2018-04-09T04:24:23.000Z,29.6
2018-04-09T04:26:07.000Z,29.4
2018-04-09T04:27:23.000Z,29.1
2018-04-09T04:28:23.000Z,28.9
2018-04-09T04:30:22.000Z,28.5
2018-04-09T04:31:22.000Z,28.3
2018-04-09T04:33:22.000Z,27.8
2018-04-09T04:34:22.000Z,27.8
2018-04-09T04:36:22.000Z,27.9
2018-04-09T04:37:22.000Z,27.9
2018-04-09T04:39:22.000Z,28.1
2018-04-09T04:41:22.000Z,28.2
2018-04-09T04:42:22.000Z,28.2
2018-04-09T04:43:22.000Z,28.3
2018-04-09T04:45:22.000Z,28.4
2018-04-09T04:46:22.000Z,28.5
2018-04-09T04:47:22.000Z,28.6
2018-04-09T04:49:22.000Z,28.8
2018-04-09T04:51:22.000Z,28.8
2018-04-09T04:52:22.000Z,28.9
2018-04-09T04:53:22.000Z,29
2018-04-09T04:54:22.000Z,29
2018-04-09T04:56:22.000Z,29.1
2018-04-09T04:57:22.000Z,29.1
2018-04-09T04:59:22.000Z,29.1
2018-04-09T05:01:22.000Z,29.1
2018-04-09T05:03:22.000Z,29.1
2018-04-09T05:04:22.000Z,29.1
2018-04-09T05:06:22.000Z,29.3
2018-04-09T05:07:22.000Z,29.3
2018-04-09T05:08:22.000Z,29.1
2018-04-09T05:10:22.000Z,28.5
2018-04-09T05:11:22.000Z,28.3
2018-04-09T05:12:22.000Z,28
2018-04-09T05:14:22.000Z,27.6
2018-04-09T05:15:22.000Z,27.3
2018-04-09T05:16:22.000Z,27.2
2018-04-09T05:17:22.000Z,27
2018-04-09T05:18:22.000Z,26.9
2018-04-09T05:20:22.000Z,26.6
2018-04-09T05:22:22.000Z,26.4
2018-04-09T05:24:22.000Z,26.1
2018-04-09T05:25:22.000Z,26.1
2018-04-09T05:26:22.000Z,26.1
2018-04-09T05:27:22.000Z,26.2
2018-04-09T05:29:22.000Z,26.2
2018-04-09T05:30:22.000Z,26.2
2018-04-09T05:31:22.000Z,26.1
2018-04-09T05:33:23.000Z,26.1
2018-04-09T05:34:23.000Z,26.1
2018-04-09T05:35:23.000Z,26.1
2018-04-09T05:36:23.000Z,26.1
2018-04-09T05:38:23.000Z,26.2
2018-04-09T05:40:23.000Z,26.1
2018-04-09T05:41:23.000Z,26
2018-04-09T05:42:23.000Z,26
2018-04-09T05:44:23.000Z,25.9
2018-04-09T05:45:23.000Z,25.9
2018-04-09T05:46:23.000Z,25.9
2018-04-09T05:48:23.000Z,25.8
2018-04-09T05:49:23.000Z,25.8
2018-04-09T05:50:23.000Z,25.8
2018-04-09T05:52:23.000Z,25.8
2018-04-09T05:54:08.000Z,25.8
2018-04-09T05:55:23.000Z,25.8
2018-04-09T05:57:23.000Z,25.8
2018-04-09T05:59:23.000Z,25.9
2018-04-09T06:00:23.000Z,25.9
2018-04-09T06:02:23.000Z,25.9
2018-04-09T06:03:23.000Z,25.9
2018-04-09T06:05:23.000Z,25.9
2018-04-09T06:07:23.000Z,25.8
2018-04-09T06:08:23.000Z,25.9
2018-04-09T06:09:23.000Z,25.9
2018-04-09T06:11:23.000Z,26
2018-04-09T06:12:23.000Z,26
2018-04-09T06:14:08.000Z,26.2
2018-04-09T06:15:23.000Z,26.2
2018-04-09T06:17:23.000Z,26.3
2018-04-09T06:18:23.000Z,26.4
2018-04-09T06:19:23.000Z,26.5
2018-04-09T06:21:23.000Z,26.5
2018-04-09T06:23:23.000Z,26.5
2018-04-09T06:24:23.000Z,26.6
2018-04-09T06:26:23.000Z,26.7
2018-04-09T06:27:23.000Z,26.8
2018-04-09T06:29:08.000Z,26.9
2018-04-09T06:30:23.000Z,27
2018-04-09T06:31:23.000Z,27
2018-04-09T06:32:23.000Z,27.1
2018-04-09T06:33:23.000Z,27.2
2018-04-09T06:34:23.000Z,27.2
2018-04-09T06:36:23.000Z,27.4
2018-04-09T06:38:23.000Z,27.5
2018-04-09T06:39:23.000Z,27.5
2018-04-09T06:41:07.000Z,27.6
2018-04-09T06:42:23.000Z,27.6
2018-04-09T06:43:23.000Z,27.6
2018-04-09T06:45:23.000Z,27.7
2018-04-09T06:46:23.000Z,27.7
2018-04-09T06:48:07.000Z,27.9
2018-04-09T06:49:23.000Z,27.9
2018-04-09T06:50:23.000Z,28
2018-04-09T06:52:23.000Z,28
2018-04-09T06:53:23.000Z,28.1
2018-04-09T06:55:23.000Z,28
2018-04-09T06:56:23.000Z,28
2018-04-09T06:58:23.000Z,28.1
2018-04-09T07:00:23.000Z,28.1
2018-04-09T07:01:23.000Z,28.2
2018-04-09T07:02:23.000Z,28.2
2018-04-09T07:03:23.000Z,28.3
2018-04-09T07:05:23.000Z,28.4
2018-04-09T07:06:23.000Z,28.5
2018-04-09T07:08:23.000Z,28.4
2018-04-09T07:09:23.000Z,28.4
2018-04-09T07:11:23.000Z,28.4
2018-04-09T07:12:23.000Z,28.4
2018-04-09T07:13:23.000Z,28.4
2018-04-09T07:15:07.000Z,28.5
2018-04-09T07:16:23.000Z,28.5
2018-04-09T07:17:23.000Z,28.4
2018-04-09T07:19:23.000Z,28.3
2018-04-09T07:20:23.000Z,28.3
2018-04-09T07:22:23.000Z,28.4
2018-04-09T07:24:07.000Z,28.4
2018-04-09T07:25:23.000Z,28.3
2018-04-09T07:27:23.000Z,28.3
2018-04-09T07:29:23.000Z,28.1
2018-04-09T07:31:23.000Z,28.1
2018-04-09T07:33:23.000Z,28
2018-04-09T07:35:23.000Z,28
2018-04-09T07:37:23.000Z,28
2018-04-09T07:38:23.000Z,28.1
2018-04-09T07:39:23.000Z,28.2
2018-04-09T07:40:22.000Z,28.4
2018-04-09T07:42:22.000Z,28.4
2018-04-09T07:43:22.000Z,28.3
2018-04-09T07:45:22.000Z,28.3
2018-04-09T07:47:22.000Z,28.2
2018-04-09T07:48:22.000Z,28.2
2018-04-09T07:50:22.000Z,28.3
2018-04-09T07:51:22.000Z,28.4
2018-04-09T07:52:22.000Z,28.5
2018-04-09T07:54:22.000Z,28.4
2018-04-09T07:56:22.000Z,28.3
2018-04-09T07:57:22.000Z,28.3
2018-04-09T07:59:22.000Z,28.3
2018-04-09T08:00:22.000Z,28.2
2018-04-09T08:02:22.000Z,28.3
2018-04-09T08:04:22.000Z,28.3
2018-04-09T08:05:22.000Z,28.3
2018-04-09T08:06:22.000Z,28.4
2018-04-09T08:08:22.000Z,28.5
2018-04-09T08:10:22.000Z,28.5
2018-04-09T08:11:22.000Z,28.6
2018-04-09T08:12:22.000Z,28.6
2018-04-09T08:14:22.000Z,28.8
2018-04-09T08:15:22.000Z,28.8
2018-04-09T08:17:07.000Z,28.9
2018-04-09T08:18:22.000Z,28.8
2018-04-09T08:20:22.000Z,28.9
2018-04-09T08:22:22.000Z,28.9
2018-04-09T08:24:22.000Z,28.7
2018-04-09T08:26:22.000Z,28.7
2018-04-09T08:27:22.000Z,28.6
2018-04-09T08:29:22.000Z,28.6
2018-04-09T08:30:22.000Z,28.6
2018-04-09T08:31:22.000Z,28.7
2018-04-09T08:33:22.000Z,29
2018-04-09T08:34:22.000Z,29.1
2018-04-09T08:35:22.000Z,29.2
2018-04-09T08:36:22.000Z,29.2
2018-04-09T08:37:22.000Z,29.2
2018-04-09T08:39:22.000Z,29.4
2018-04-09T08:41:22.000Z,29.4
2018-04-09T08:42:22.000Z,29.4
2018-04-09T08:44:23.000Z,29.4
2018-04-09T08:45:23.000Z,29.5
2018-04-09T08:47:23.000Z,29.6
2018-04-09T08:49:23.000Z,29.7
2018-04-09T08:51:23.000Z,29.7
2018-04-09T08:53:23.000Z,29.7
2018-04-09T08:54:23.000Z,29.7
2018-04-09T08:56:23.000Z,29.6
2018-04-09T08:58:23.000Z,29.7
2018-04-09T09:00:23.000Z,29.7
2018-04-09T09:01:23.000Z,29.8
2018-04-09T09:02:23.000Z,29.9
2018-04-09T09:04:23.000Z,30
2018-04-09T09:06:23.000Z,30.2
2018-04-09T09:08:23.000Z,30.4
2018-04-09T09:10:23.000Z,30.5
2018-04-09T09:12:23.000Z,30.6
2018-04-09T09:14:23.000Z,30.8
2018-04-09T09:16:23.000Z,30.9
2018-04-09T09:18:23.000Z,31.1
2018-04-09T09:20:23.000Z,31.3
2018-04-09T09:22:23.000Z,31.2
2018-04-09T09:24:23.000Z,31.2
2018-04-09T09:25:23.000Z,31.3
2018-04-09T09:26:23.000Z,31.5
2018-04-09T09:28:08.000Z,31.5
2018-04-09T09:29:23.000Z,31.5
2018-04-09T09:30:23.000Z,31.5
2018-04-09T09:32:23.000Z,31.4
2018-04-09T09:34:23.000Z,30.9
2018-04-09T09:35:23.000Z,30.7
2018-04-09T09:37:23.000Z,30.3
2018-04-09T09:38:23.000Z,30.2
2018-04-09T09:40:23.000Z,30.1
2018-04-09T09:41:23.000Z,30.1
2018-04-09T09:42:23.000Z,30.2
2018-04-09T09:44:23.000Z,30.1
2018-04-09T09:45:23.000Z,30.1
2018-04-09T09:47:23.000Z,30
2018-04-09T09:49:23.000Z,29.8
2018-04-09T09:50:23.000Z,29.8
2018-04-09T09:52:23.000Z,29.6
2018-04-09T09:53:23.000Z,29.6
2018-04-09T09:55:23.000Z,29.5
2018-04-09T09:56:23.000Z,29.5
2018-04-09T09:58:23.000Z,29.4
2018-04-09T10:00:23.000Z,29.4
2018-04-09T10:01:23.000Z,29.3
2018-04-09T10:03:08.000Z,29.3
2018-04-09T10:04:23.000Z,29.2
2018-04-09T10:05:23.000Z,29.2
2018-04-09T10:07:23.000Z,29.1
2018-04-09T10:08:23.000Z,29.1
2018-04-09T10:10:08.000Z,29.1
2018-04-09T10:11:23.000Z,29
2018-04-09T10:12:23.000Z,29
2018-04-09T10:13:23.000Z,29
2018-04-09T10:15:23.000Z,29.1
2018-04-09T10:16:23.000Z,29.1
2018-04-09T10:17:23.000Z,29.1
2018-04-09T10:19:23.000Z,29.1
2018-04-09T10:21:23.000Z,29
2018-04-09T10:23:23.000Z,29
2018-04-09T10:25:08.000Z,29
2018-04-09T10:26:23.000Z,28.9
2018-04-09T10:27:23.000Z,28.9
2018-04-09T10:28:23.000Z,29
2018-04-09T10:30:23.000Z,28.9
2018-04-09T10:32:23.000Z,28.8
2018-04-09T10:34:23.000Z,28.8
2018-04-09T10:36:08.000Z,28.8
2018-04-09T10:37:23.000Z,28.8
2018-04-09T10:39:23.000Z,28.8
2018-04-09T10:40:23.000Z,28.8
2018-04-09T10:41:23.000Z,28.8
2018-04-09T10:42:23.000Z,28.8
2018-04-09T10:43:23.000Z,28.8
2018-04-09T10:45:23.000Z,28.9
2018-04-09T10:46:23.000Z,28.9
2018-04-09T10:48:23.000Z,29
2018-04-09T10:49:23.000Z,29
2018-04-09T10:50:23.000Z,29
2018-04-09T10:52:23.000Z,29
2018-04-09T10:54:23.000Z,28.9
2018-04-09T10:55:23.000Z,28.9
2018-04-09T10:57:23.000Z,29.1
2018-04-09T10:58:23.000Z,29.2
2018-04-09T11:00:08.000Z,29.3
2018-04-09T11:01:23.000Z,29.3
2018-04-09T11:02:23.000Z,29.4
2018-04-09T11:04:23.000Z,29.5
2018-04-09T11:05:23.000Z,29.5
2018-04-09T11:06:23.000Z,29.5
2018-04-09T11:08:23.000Z,29.6
2018-04-09T11:09:23.000Z,29.6
2018-04-09T11:10:23.000Z,29.6
2018-04-09T11:12:23.000Z,29.6
2018-04-09T11:14:23.000Z,29.5
2018-04-09T11:15:23.000Z,29.4
2018-04-09T11:17:08.000Z,29.3
2018-04-09T11:18:23.000Z,29.2
2018-04-09T11:20:23.000Z,29.2
2018-04-09T11:22:23.000Z,29.1
2018-04-09T11:24:23.000Z,29
2018-04-09T11:25:23.000Z,29
2018-04-09T11:27:23.000Z,29.1
2018-04-09T11:28:23.000Z,29.1
2018-04-09T11:30:23.000Z,29.2
2018-04-09T11:32:23.000Z,29.3
2018-04-09T11:34:23.000Z,29.3
2018-04-09T11:36:23.000Z,29.3
2018-04-09T11:37:23.000Z,29.2
2018-04-09T11:39:23.000Z,29.1
2018-04-09T11:41:23.000Z,29.1
2018-04-09T11:42:23.000Z,29.1
2018-04-09T11:44:23.000Z,29.1
2018-04-09T11:46:23.000Z,29
2018-04-09T11:47:23.000Z,29
2018-04-09T11:49:08.000Z,29.1
2018-04-09T11:50:23.000Z,29
2018-04-09T11:51:23.000Z,29
2018-04-09T11:53:23.000Z,29
2018-04-09T11:55:23.000Z,29
2018-04-09T11:57:23.000Z,28.9
2018-04-09T11:58:23.000Z,28.9
2018-04-09T12:00:23.000Z,28.8
2018-04-09T12:02:23.000Z,28.8
2018-04-09T12:04:23.000Z,28.7
2018-04-09T12:06:23.000Z,28.6
2018-04-09T12:07:23.000Z,28.6
2018-04-09T12:08:23.000Z,28.7
2018-04-09T12:10:23.000Z,28.8
2018-04-09T12:11:23.000Z,28.8
2018-04-09T12:13:23.000Z,28.8
2018-04-09T12:15:23.000Z,28.8
2018-04-09T12:17:08.000Z,28.8
2018-04-09T12:18:23.000Z,28.8
2018-04-09T12:19:23.000Z,28.8
2018-04-09T12:20:23.000Z,28.8
2018-04-09T12:22:23.000Z,28.9
2018-04-09T12:24:23.000Z,28.9
2018-04-09T12:25:23.000Z,28.9
2018-04-09T12:27:23.000Z,28.9
2018-04-09T12:28:23.000Z,28.9
2018-04-09T12:30:08.000Z,28.9
2018-04-09T12:31:23.000Z,28.9
2018-04-09T12:33:23.000Z,29
2018-04-09T12:35:23.000Z,29
2018-04-09T12:37:23.000Z,29
2018-04-09T12:38:23.000Z,29
2018-04-09T12:39:23.000Z,29
2018-04-09T12:41:23.000Z,29
2018-04-09T12:42:23.000Z,29.1
2018-04-09T12:44:23.000Z,29.1
2018-04-09T12:45:23.000Z,29.1
2018-04-09T12:46:23.000Z,29.2
2018-04-09T12:48:23.000Z,29.3
2018-04-09T12:50:23.000Z,29.2
2018-04-09T12:52:23.000Z,29.1
2018-04-09T12:54:23.000Z,29
2018-04-09T12:55:23.000Z,29
2018-04-09T12:57:23.000Z,29
2018-04-09T12:59:07.000Z,28.9
2018-04-09T13:00:22.000Z,28.8
2018-04-09T13:02:07.000Z,28.8
2018-04-09T13:03:22.000Z,28.8
2018-04-09T13:04:22.000Z,28.9
2018-04-09T13:06:22.000Z,29
2018-04-09T13:07:22.000Z,29
2018-04-09T13:08:22.000Z,29
2018-04-09T13:10:22.000Z,29.1
2018-04-09T13:11:22.000Z,29.1
2018-04-09T13:13:22.000Z,29.1
2018-04-09T13:14:22.000Z,29.2
2018-04-09T13:16:22.000Z,29.2
2018-04-09T13:17:22.000Z,29.3
2018-04-09T13:19:07.000Z,29.3
2018-04-09T13:20:22.000Z,29.2
2018-04-09T13:21:22.000Z,29.2
2018-04-09T13:23:22.000Z,29.3
2018-04-09T13:25:22.000Z,29.3
2018-04-09T13:27:22.000Z,29.3
2018-04-09T13:29:22.000Z,29.2
2018-04-09T13:31:22.000Z,29.1
2018-04-09T13:32:22.000Z,29.2
2018-04-09T13:34:22.000Z,29.3
2018-04-09T13:36:22.000Z,29.4
2018-04-09T13:38:22.000Z,29.7
2018-04-09T13:40:07.000Z,29.9
2018-04-09T13:41:22.000Z,29.8
2018-04-09T13:42:22.000Z,29.9
2018-04-09T13:44:22.000Z,29.9
2018-04-09T13:46:22.000Z,29.9
2018-04-09T13:48:22.000Z,29.8
2018-04-09T13:50:23.000Z,29.7
2018-04-09T13:52:22.000Z,29.7
2018-04-09T13:54:22.000Z,29.7
2018-04-09T13:55:22.000Z,29.7
2018-04-09T13:56:22.000Z,29.7
2018-04-09T13:58:22.000Z,29.8
2018-04-09T14:00:22.000Z,29.8
2018-04-09T14:02:23.000Z,29.8
2018-04-09T14:04:23.000Z,29.8
2018-04-09T14:06:07.000Z,29.9
2018-04-09T14:07:23.000Z,30
2018-04-09T14:08:23.000Z,30.1
2018-04-09T14:09:23.000Z,30.3
2018-04-09T14:11:23.000Z,30.4
2018-04-09T14:12:23.000Z,30.5
2018-04-09T14:13:23.000Z,30.6
2018-04-09T14:15:23.000Z,30.6
2018-04-09T14:16:23.000Z,30.6
2018-04-09T14:17:23.000Z,30.7
2018-04-09T14:19:23.000Z,30.7
2018-04-09T14:20:23.000Z,30.8
2018-04-09T14:22:23.000Z,30.8
2018-04-09T14:23:23.000Z,30.8
2018-04-09T14:25:23.000Z,30.8
2018-04-09T14:26:23.000Z,30.8
2018-04-09T14:28:23.000Z,30.8
2018-04-09T14:30:07.000Z,30.7
2018-04-09T14:31:23.000Z,30.7
2018-04-09T14:33:23.000Z,30.6
2018-04-09T14:34:23.000Z,30.6
2018-04-09T14:36:23.000Z,30.5
2018-04-09T14:38:23.000Z,30.5
2018-04-09T14:40:23.000Z,30.5
2018-04-09T14:44:08.000Z,30.1
2018-04-09T14:46:08.000Z,30.1
2018-04-09T14:48:08.000Z,30.2
2018-04-09T14:50:08.000Z,30.3
2018-04-09T14:52:08.000Z,30.3
2018-04-09T14:53:53.000Z,30.4
2018-04-09T14:55:08.000Z,30.4
2018-04-09T14:56:53.000Z,30.5
2018-04-09T14:58:08.000Z,30.5
2018-04-09T14:59:08.000Z,30.5
2018-04-09T15:01:08.000Z,30.6
2018-04-09T15:03:08.000Z,30.5
2018-04-09T15:04:09.000Z,30.5
2018-04-09T15:06:09.000Z,30.5
2018-04-09T15:08:09.000Z,30.5
2018-04-09T15:10:09.000Z,30.4
2018-04-09T15:11:09.000Z,30.4
2018-04-09T15:13:09.000Z,30.4
2018-04-09T15:49:43.000Z,28.6
2018-04-09T15:51:43.000Z,28.8
2018-04-09T15:53:43.000Z,29.1
2018-04-09T15:54:43.000Z,29.3
2018-04-09T15:55:43.000Z,29.4
2018-04-09T15:56:43.000Z,29.6
2018-04-09T15:57:43.000Z,29.8
2018-04-09T15:58:43.000Z,30
2018-04-09T15:59:43.000Z,30.1
2018-04-09T16:00:43.000Z,30.3
2018-04-09T16:01:43.000Z,30.4
2018-04-09T16:03:43.000Z,30.5
2018-04-09T16:05:43.000Z,30.5
2018-04-09T16:07:28.000Z,30.5
2018-04-09T16:08:43.000Z,30.5
2018-04-09T16:10:43.000Z,30.4
2018-04-09T16:12:43.000Z,30.4
2018-04-09T16:13:43.000Z,30.3
2018-04-09T16:15:28.000Z,30.4
2018-04-09T16:16:43.000Z,30.3
2018-04-09T16:17:43.000Z,30.4
2018-04-09T16:18:43.000Z,30.4
2018-04-09T16:20:43.000Z,30.5
2018-04-09T16:21:43.000Z,30.5
2018-04-09T16:23:43.000Z,30.5
2018-04-09T16:24:43.000Z,30.5
2018-04-09T16:26:43.000Z,30.5
2018-04-09T16:28:28.000Z,30.5
2018-04-09T16:29:43.000Z,30.4
2018-04-09T16:30:43.000Z,30.4
2018-04-09T16:32:43.000Z,30.4
2018-04-09T16:34:43.000Z,30.3
2018-04-09T16:36:43.000Z,30.2
2018-04-09T16:37:43.000Z,30.2
2018-04-09T16:39:43.000Z,30.2
2018-04-09T16:41:43.000Z,30.2
2018-04-09T16:43:43.000Z,30.2
2018-04-09T16:45:43.000Z,30.1
2018-04-09T16:47:43.000Z,30
2018-04-09T16:49:43.000Z,30
2018-04-09T16:51:43.000Z,29.9
2018-04-09T16:52:43.000Z,30
2018-04-09T16:54:43.000Z,30
2018-04-09T16:56:43.000Z,30
2018-04-09T16:57:43.000Z,30
2018-04-09T16:59:43.000Z,30.1
2018-04-09T17:01:43.000Z,30.1
2018-04-09T17:03:43.000Z,30
2018-04-09T17:04:43.000Z,30.1
2018-04-09T17:05:43.000Z,30.1
2018-04-09T17:07:43.000Z,30
2018-04-09T17:09:43.000Z,30
2018-04-09T17:10:43.000Z,30
2018-04-09T17:12:43.000Z,30
2018-04-09T17:14:43.000Z,30
2018-04-09T17:16:43.000Z,30
2018-04-09T17:17:43.000Z,30
2018-04-09T17:18:43.000Z,30
2018-04-09T17:20:43.000Z,30
2018-04-09T17:21:43.000Z,30
2018-04-09T17:23:43.000Z,30.1
2018-04-09T17:25:43.000Z,30
2018-04-09T17:27:28.000Z,30
2018-04-09T17:28:43.000Z,30
2018-04-09T17:30:43.000Z,29.9
2018-04-09T17:31:43.000Z,29.9
2018-04-09T17:33:43.000Z,29.9
2018-04-09T17:34:43.000Z,29.9
2018-04-09T17:36:43.000Z,29.9
2018-04-09T17:37:43.000Z,29.9
2018-04-09T17:39:43.000Z,29.9
2018-04-09T17:41:43.000Z,29.9
2018-04-09T17:43:43.000Z,29.9
2018-04-09T17:44:43.000Z,29.9
2018-04-09T17:46:43.000Z,29.9
2018-04-09T17:48:43.000Z,29.8
2018-04-09T17:49:43.000Z,29.8
2018-04-09T17:50:43.000Z,29.9
2018-04-09T17:52:43.000Z,29.9
2018-04-09T17:54:43.000Z,29.8
2018-04-09T17:56:43.000Z,29.8
2018-04-09T17:57:43.000Z,29.8
2018-04-09T17:58:43.000Z,29.8
2018-04-09T17:59:43.000Z,29.9
2018-04-09T18:00:43.000Z,30
2018-04-09T18:02:43.000Z,30
2018-04-09T18:04:43.000Z,29.9
2018-04-09T18:05:43.000Z,29.9
2018-04-09T18:07:43.000Z,29.9
2018-04-09T18:09:43.000Z,29.9
2018-04-09T18:10:43.000Z,29.8
2018-04-09T18:12:43.000Z,29.8
2018-04-09T18:13:43.000Z,29.9
2018-04-09T18:15:43.000Z,29.9
2018-04-09T18:16:43.000Z,29.9
2018-04-09T18:17:43.000Z,29.9
2018-04-09T18:19:43.000Z,29.9
2018-04-09T18:20:43.000Z,29.9
2018-04-09T18:22:43.000Z,29.9
2018-04-09T18:24:43.000Z,29.8
2018-04-09T18:25:43.000Z,29.7
2018-04-09T18:27:27.000Z,29.7
2018-04-09T18:28:43.000Z,29.7
2018-04-09T18:30:43.000Z,29.6
2018-04-09T18:32:43.000Z,29.6
2018-04-09T18:34:43.000Z,29.5
2018-04-09T18:35:43.000Z,29.6
2018-04-09T18:37:43.000Z,29.6
2018-04-09T18:38:43.000Z,29.6
2018-04-09T18:40:43.000Z,29.7
2018-04-09T18:41:43.000Z,29.7
2018-04-09T18:42:43.000Z,29.8
2018-04-09T18:43:43.000Z,29.8
2018-04-09T18:44:43.000Z,29.9
2018-04-09T18:46:43.000Z,29.9
2018-04-09T18:47:43.000Z,29.9
2018-04-09T18:49:43.000Z,29.9
2018-04-09T18:50:43.000Z,29.9
2018-04-09T18:52:43.000Z,29.9
2018-04-09T18:54:27.000Z,29.9
2018-04-09T18:55:43.000Z,29.8
2018-04-09T18:56:43.000Z,29.8
2018-04-09T18:58:43.000Z,29.8
2018-04-09T19:00:43.000Z,29.7
2018-04-09T19:01:43.000Z,29.6
2018-04-09T19:03:43.000Z,29.6
2018-04-09T19:04:43.000Z,29.6
2018-04-09T19:05:43.000Z,29.7
2018-04-09T19:06:43.000Z,29.7
2018-04-09T19:07:43.000Z,29.8
2018-04-09T19:09:43.000Z,29.8
2018-04-09T19:11:27.000Z,29.7
2018-04-09T19:12:43.000Z,29.6
2018-04-09T19:13:43.000Z,29.6
2018-04-09T19:14:43.000Z,29.6
2018-04-09T19:15:43.000Z,29.7
2018-04-09T19:17:43.000Z,29.7
2018-04-09T19:19:42.000Z,29.7
2018-04-09T19:21:42.000Z,29.6
2018-04-09T19:22:42.000Z,29.6
2018-04-09T19:24:42.000Z,29.7
2018-04-09T19:25:42.000Z,29.7
2018-04-09T19:27:42.000Z,29.7
2018-04-09T19:29:27.000Z,29.7
2018-04-09T19:30:42.000Z,29.6
2018-04-09T19:31:42.000Z,29.6
2018-04-09T19:33:42.000Z,29.6
2018-04-09T19:34:43.000Z,29.6
2018-04-09T19:36:42.000Z,29.5
2018-04-09T19:38:42.000Z,29.5
2018-04-09T19:40:42.000Z,29.3
2018-04-09T19:41:42.000Z,29.3
2018-04-09T19:43:43.000Z,29.4
2018-04-09T19:45:42.000Z,29.4
2018-04-09T19:47:42.000Z,29.4
2018-04-09T19:48:42.000Z,29.4
2018-04-09T19:50:43.000Z,29.5
2018-04-09T19:52:42.000Z,29.5
2018-04-09T19:53:42.000Z,29.4
2018-04-09T19:55:42.000Z,29.4
2018-04-09T19:56:42.000Z,29.4
2018-04-09T19:57:42.000Z,29.5
2018-04-09T19:58:43.000Z,29.5
2018-04-09T20:00:27.000Z,29.6
2018-04-09T20:01:42.000Z,29.5
2018-04-09T20:02:43.000Z,29.6
2018-04-09T20:04:42.000Z,29.6
2018-04-09T20:06:42.000Z,29.6
2018-04-09T20:07:43.000Z,29.6
2018-04-09T20:09:43.000Z,29.6
2018-04-09T20:11:27.000Z,29.6
2018-04-09T20:12:43.000Z,29.5
2018-04-09T20:14:43.000Z,29.5
2018-04-09T20:16:43.000Z,29.5
2018-04-09T20:18:27.000Z,29.4
2018-04-09T20:19:43.000Z,29.4
2018-04-09T20:20:43.000Z,29.4
2018-04-09T20:21:43.000Z,29.4
2018-04-09T20:23:43.000Z,29.4
2018-04-09T20:24:43.000Z,29.4
2018-04-09T20:26:43.000Z,29.5
2018-04-09T20:27:43.000Z,29.5
2018-04-09T20:29:43.000Z,29.5
2018-04-09T20:31:43.000Z,29.4
2018-04-09T20:33:43.000Z,29.4
2018-04-09T20:34:43.000Z,29.4
2018-04-09T20:35:43.000Z,29.5
2018-04-09T20:37:43.000Z,29.5
2018-04-09T20:39:43.000Z,29.5
2018-04-09T20:41:43.000Z,29.5
2018-04-09T20:42:43.000Z,29.5
2018-04-09T20:44:27.000Z,29.5
2018-04-09T20:45:43.000Z,29.5
2018-04-09T20:46:43.000Z,29.5
2018-04-09T20:48:43.000Z,29.5
2018-04-09T20:49:43.000Z,29.5
2018-04-09T20:50:43.000Z,29.6
2018-04-09T20:51:43.000Z,29.6
2018-04-09T20:52:43.000Z,29.7
2018-04-09T20:53:43.000Z,29.7
2018-04-09T20:55:43.000Z,29.7
2018-04-09T20:57:43.000Z,29.6
2018-04-09T20:59:43.000Z,29.5
2018-04-09T21:00:43.000Z,29.5
2018-04-09T21:01:43.000Z,29.5
2018-04-09T21:02:43.000Z,29.6
2018-04-09T21:04:43.000Z,29.6